Time;durP1;ratioP1;P1;durP2;ratioP2;P2;SDS_P1;SDS_P2;PMS_P1;PMS_P2;Temp;Humidity;BMP_temperature;BMP_pressure;BME280_temperature;BME280_humidity;BME280_pressure;Samples;Min_cycle;Max_cycle;Signal;HPM_P1;HPM_P2
2022/07/23 00:00:07;;;;;;;12.30;9.80;;;23.80;67.80;;;;;;5016203;28;20206;-58
2022/07/23 00:02:33;;;;;;;10.83;9.77;;;23.80;68.10;;;;;;5019723;28;20191;-58
2022/07/23 00:04:58;;;;;;;10.07;9.17;;;23.70;68.30;;;;;;4989154;28;20214;-58
2022/07/23 00:07:24;;;;;;;9.80;8.87;;;23.70;67.90;;;;;;4990994;28;20219;-59
2022/07/23 00:09:50;;;;;;;9.03;8.23;;;23.70;67.50;;;;;;5024888;28;20237;-58
2022/07/23 00:12:15;;;;;;;9.20;8.30;;;23.70;67.70;;;;;;5052525;28;20198;-58
2022/07/23 00:14:41;;;;;;;9.60;8.60;;;23.70;68.00;;;;;;5052649;28;20222;-58
2022/07/23 00:17:10;;;;;;;9.37;8.47;;;23.70;68.00;;;;;;5040781;28;20202;-58
2022/07/23 00:19:35;;;;;;;11.23;9.60;;;23.70;68.10;;;;;;5056097;28;20215;-58
2022/07/23 00:22:01;;;;;;;10.47;9.47;;;23.70;68.40;;;;;;5036378;28;20198;-58
2022/07/23 00:24:27;;;;;;;10.60;9.50;;;23.60;68.60;;;;;;5028942;28;20218;-58
2022/07/23 00:26:52;;;;;;;10.37;9.37;;;23.60;69.10;;;;;;5074314;28;20190;-59
2022/07/23 00:29:18;;;;;;;11.20;10.10;;;23.60;69.00;;;;;;5038818;28;20204;-58
2022/07/23 00:31:44;;;;;;;11.40;10.27;;;23.50;68.90;;;;;;5044122;28;20247;-58
2022/07/23 00:34:09;;;;;;;10.50;9.50;;;23.50;69.30;;;;;;5055829;28;20229;-59
2022/07/23 00:36:35;;;;;;;10.37;9.37;;;23.50;69.40;;;;;;5052234;28;20229;-58
2022/07/23 00:39:00;;;;;;;11.27;9.93;;;23.50;69.40;;;;;;5038849;28;20198;-58
2022/07/23 00:41:26;;;;;;;10.07;9.17;;;23.50;69.20;;;;;;5044308;28;20285;-58
2022/07/23 00:43:52;;;;;;;11.33;9.57;;;23.40;69.30;;;;;;5034608;28;20230;-58
2022/07/23 00:46:21;;;;;;;10.10;9.30;;;23.40;69.10;;;;;;5054167;28;20236;-58
2022/07/23 00:48:47;;;;;;;10.63;9.73;;;23.40;69.10;;;;;;5053903;28;20216;-58
2022/07/23 00:51:15;;;;;;;10.20;9.13;;;23.30;69.20;;;;;;5074258;28;20182;-58
2022/07/23 00:53:41;;;;;;;10.13;9.13;;;23.30;69.20;;;;;;5071377;28;20186;-59
2022/07/23 00:56:08;;;;;;;9.87;9.07;;;23.30;69.00;;;;;;5038349;28;20200;-59
2022/07/23 00:58:35;;;;;;;9.93;8.70;;;23.30;69.30;;;;;;5057806;28;20190;-59
2022/07/23 01:01:01;;;;;;;10.37;9.37;;;23.30;69.20;;;;;;5057319;28;20284;-59
2022/07/23 01:03:26;;;;;;;9.80;8.93;;;23.30;69.30;;;;;;5018120;28;20222;-59
2022/07/23 01:05:53;;;;;;;9.67;8.87;;;23.30;69.50;;;;;;5064533;28;20195;-59
2022/07/23 01:08:18;;;;;;;11.33;9.50;;;23.30;69.30;;;;;;5050450;28;20202;-58
2022/07/23 01:10:44;;;;;;;10.13;9.23;;;23.30;69.30;;;;;;5063083;28;20241;-58
2022/07/23 01:13:10;;;;;;;10.00;8.93;;;23.20;69.60;;;;;;5042342;28;20187;-58
2022/07/23 01:15:38;;;;;;;11.30;10.27;;;23.30;69.60;;;;;;5050264;28;20191;-58
2022/07/23 01:18:05;;;;;;;11.03;9.93;;;23.30;69.30;;;;;;5027760;28;20243;-58
2022/07/23 01:20:32;;;;;;;10.73;9.83;;;23.30;69.50;;;;;;5045586;28;20190;-58
2022/07/23 01:22:58;;;;;;;9.00;8.20;;;23.30;69.50;;;;;;5024509;28;20217;-58
2022/07/23 01:25:24;;;;;;;10.03;9.03;;;23.30;69.20;;;;;;5054717;28;20269;-58
2022/07/23 01:27:52;;;;;;;10.80;9.80;;;23.30;69.00;;;;;;5056396;28;20206;-58
2022/07/23 01:30:18;;;;;;;11.70;9.30;;;23.30;69.20;;;;;;5055505;28;20184;-58
2022/07/23 01:32:43;;;;;;;9.63;8.73;;;23.20;69.00;;;;;;5054543;28;20186;-58
2022/07/23 01:35:09;;;;;;;10.43;9.53;;;23.20;69.10;;;;;;5054522;28;20201;-58
2022/07/23 01:37:35;;;;;;;10.73;9.73;;;23.20;69.10;;;;;;5034823;28;20290;-58
2022/07/23 01:40:01;;;;;;;10.73;9.83;;;23.20;69.20;;;;;;5025418;28;20190;-58
2022/07/23 01:42:27;;;;;;;10.50;9.60;;;23.20;69.20;;;;;;5062929;28;20194;-58
2022/07/23 01:44:52;;;;;;;10.40;9.40;;;23.20;69.30;;;;;;5040043;28;20194;-59
2022/07/23 01:47:18;;;;;;;13.03;9.87;;;23.20;69.20;;;;;;5028558;28;20214;-59
2022/07/23 01:49:43;;;;;;;10.57;9.47;;;23.10;69.50;;;;;;5033452;28;20221;-59
2022/07/23 01:52:10;;;;;;;10.63;9.67;;;23.20;69.60;;;;;;5020911;28;20190;-59
2022/07/23 01:54:38;;;;;;;11.07;9.77;;;23.10;69.50;;;;;;5020686;28;20221;-58
2022/07/23 01:57:04;;;;;;;10.20;9.30;;;23.10;69.60;;;;;;5042282;28;20201;-58
2022/07/23 01:59:30;;;;;;;10.63;9.67;;;23.10;69.70;;;;;;5058645;28;20186;-58
2022/07/23 02:01:56;;;;;;;11.63;10.07;;;23.00;69.70;;;;;;5070068;28;20201;-58
2022/07/23 02:04:22;;;;;;;11.50;10.47;;;23.00;69.90;;;;;;5061576;28;20202;-58
2022/07/23 02:06:48;;;;;;;11.27;10.27;;;23.00;70.40;;;;;;5037230;28;20201;-59
2022/07/23 02:09:15;;;;;;;11.37;10.37;;;22.90;70.00;;;;;;5050798;28;20223;-58
2022/07/23 02:11:41;;;;;;;9.57;8.67;;;22.90;70.20;;;;;;5012574;28;20183;-58
2022/07/23 02:14:07;;;;;;;10.70;9.73;;;22.90;70.30;;;;;;5017587;28;20195;-59
2022/07/23 02:16:32;;;;;;;10.57;9.67;;;22.80;70.50;;;;;;5003852;28;20191;-58
2022/07/23 02:18:58;;;;;;;11.03;10.00;;;22.80;70.80;;;;;;5000067;28;20329;-58
2022/07/23 02:21:24;;;;;;;10.63;9.63;;;22.90;70.80;;;;;;4987592;28;20191;-58
2022/07/23 02:23:49;;;;;;;11.83;10.20;;;22.80;70.60;;;;;;5000667;28;20198;-59
2022/07/23 02:26:15;;;;;;;10.13;9.10;;;22.80;70.90;;;;;;5001339;28;20203;-59
2022/07/23 02:28:41;;;;;;;10.17;9.27;;;22.80;70.70;;;;;;4993378;28;20234;-59
2022/07/23 02:31:07;;;;;;;10.17;9.17;;;22.80;70.90;;;;;;4984098;28;20205;-58
2022/07/23 02:33:33;;;;;;;9.77;8.97;;;22.80;70.90;;;;;;5044526;28;20196;-58
2022/07/23 02:35:59;;;;;;;10.57;9.60;;;22.80;71.00;;;;;;5017907;28;20277;-58
2022/07/23 02:38:25;;;;;;;10.87;9.77;;;22.80;71.00;;;;;;5006102;28;20218;-59
2022/07/23 02:40:50;;;;;;;10.43;9.50;;;22.70;70.80;;;;;;5016636;28;20191;-59
2022/07/23 02:43:16;;;;;;;10.13;9.13;;;22.80;70.70;;;;;;5011955;28;20191;-58
2022/07/23 02:45:42;;;;;;;11.10;10.07;;;22.80;70.90;;;;;;5017020;28;20193;-58
2022/07/23 02:48:07;;;;;;;11.33;10.17;;;22.70;70.90;;;;;;5018145;28;20222;-58
2022/07/23 02:50:33;;;;;;;11.73;10.53;;;22.70;71.10;;;;;;4997262;28;20246;-59
2022/07/23 02:52:59;;;;;;;10.03;9.03;;;22.70;71.30;;;;;;4981184;28;20194;-59
2022/07/23 02:55:24;;;;;;;10.37;9.37;;;22.70;71.20;;;;;;5000264;28;20194;-58
2022/07/23 02:57:50;;;;;;;11.00;10.07;;;22.70;71.10;;;;;;4983540;28;20192;-58
2022/07/23 03:00:16;;;;;;;9.93;9.07;;;22.60;71.20;;;;;;5004074;28;20249;-58
2022/07/23 03:02:42;;;;;;;11.23;10.13;;;22.60;71.20;;;;;;5007721;28;20190;-58
2022/07/23 03:05:08;;;;;;;10.80;9.77;;;22.60;71.30;;;;;;5002701;28;20214;-58
2022/07/23 03:07:33;;;;;;;10.90;9.90;;;22.50;71.50;;;;;;5023076;28;20262;-58
2022/07/23 03:09:59;;;;;;;10.50;9.60;;;22.50;71.50;;;;;;4996361;28;20231;-58
2022/07/23 03:12:25;;;;;;;11.87;10.77;;;22.50;71.50;;;;;;5028784;23;20236;-58
2022/07/23 03:14:50;;;;;;;11.27;10.17;;;22.50;71.50;;;;;;4961097;28;20255;-58
2022/07/23 03:17:16;;;;;;;11.17;10.07;;;22.50;71.40;;;;;;4961433;28;20281;-58
2022/07/23 03:19:42;;;;;;;16.33;10.83;;;22.50;71.50;;;;;;4989021;28;20291;-58
2022/07/23 03:22:08;;;;;;;11.57;10.47;;;22.40;71.80;;;;;;4965587;28;20200;-59
2022/07/23 03:27:18;;;;;;;11.80;10.80;;;22.40;71.60;;;;;;5000596;28;20274;-59
2022/07/23 03:29:43;;;;;;;11.67;10.60;;;22.40;71.80;;;;;;4977276;28;20193;-59
2022/07/23 03:32:09;;;;;;;12.00;10.30;;;22.40;71.80;;;;;;4989684;28;20247;-59
2022/07/23 03:34:35;;;;;;;11.80;10.80;;;22.40;72.00;;;;;;4964687;28;20242;-59
2022/07/23 03:37:01;;;;;;;11.93;10.73;;;22.30;71.80;;;;;;4977171;28;20200;-59
2022/07/23 03:39:27;;;;;;;13.73;11.50;;;22.40;71.90;;;;;;4961096;28;20212;-59
2022/07/23 03:41:52;;;;;;;11.57;10.53;;;22.30;72.10;;;;;;4990055;28;20197;-59
2022/07/23 03:44:18;;;;;;;12.83;11.80;;;22.40;72.30;;;;;;4972129;28;20195;-59
2022/07/23 03:46:44;;;;;;;13.60;12.13;;;22.40;72.00;;;;;;5009616;28;20216;-59
2022/07/23 03:49:09;;;;;;;12.47;11.47;;;22.40;71.90;;;;;;4993638;28;20219;-59
2022/07/23 03:51:35;;;;;;;13.03;11.83;;;22.40;71.90;;;;;;4983318;28;20276;-59
2022/07/23 03:54:01;;;;;;;13.10;11.90;;;22.40;71.60;;;;;;5005827;28;20207;-59
2022/07/23 03:56:26;;;;;;;12.83;11.63;;;22.40;71.80;;;;;;4968089;28;20196;-58
2022/07/23 03:58:52;;;;;;;13.23;11.93;;;22.40;71.90;;;;;;4984343;28;20236;-58
2022/07/23 04:01:18;;;;;;;14.10;12.80;;;22.30;71.90;;;;;;5018203;28;20200;-59
2022/07/23 04:03:43;;;;;;;13.80;12.47;;;22.30;72.10;;;;;;4980463;28;20203;-59
2022/07/23 04:06:09;;;;;;;13.57;12.13;;;22.30;72.20;;;;;;4974449;28;20200;-58
2022/07/23 04:08:34;;;;;;;13.20;12.00;;;22.30;72.60;;;;;;4997045;28;20215;-59
2022/07/23 04:11:00;;;;;;;13.17;11.00;;;22.30;72.50;;;;;;4996726;28;20287;-59
2022/07/23 04:13:26;;;;;;;12.97;11.87;;;22.30;72.70;;;;;;4980754;28;20274;-59
2022/07/23 04:15:51;;;;;;;13.17;11.87;;;22.20;72.70;;;;;;4996609;28;20196;-59
2022/07/23 04:18:17;;;;;;;13.10;11.90;;;22.20;72.80;;;;;;4963279;28;20291;-59
2022/07/23 04:20:44;;;;;;;11.93;10.93;;;22.20;73.10;;;;;;4969051;28;20192;-59
2022/07/23 04:23:09;;;;;;;12.40;11.10;;;22.10;72.80;;;;;;4980500;28;20200;-59
2022/07/23 04:25:36;;;;;;;12.50;11.50;;;22.20;73.00;;;;;;5011664;28;20200;-59
2022/07/23 04:28:02;;;;;;;12.77;11.63;;;22.20;73.30;;;;;;4965266;28;20213;-59
2022/07/23 04:30:27;;;;;;;12.07;10.90;;;22.20;73.10;;;;;;4959876;28;20199;-59
2022/07/23 04:32:53;;;;;;;13.70;12.40;;;22.20;72.90;;;;;;4980059;28;20199;-58
2022/07/23 04:35:19;;;;;;;13.70;12.27;;;22.20;73.00;;;;;;4979171;28;20181;-58
2022/07/23 04:37:44;;;;;;;12.50;11.37;;;22.20;73.00;;;;;;4977481;28;20243;-58
2022/07/23 04:40:11;;;;;;;13.07;11.77;;;22.20;73.20;;;;;;5002150;28;20258;-58
2022/07/23 04:42:37;;;;;;;13.20;12.00;;;22.20;73.10;;;;;;5006090;28;20313;-58
2022/07/23 04:45:03;;;;;;;13.10;11.80;;;22.20;73.40;;;;;;4992998;28;20284;-58
2022/07/23 04:47:30;;;;;;;13.40;12.20;;;22.20;73.60;;;;;;5000606;28;20232;-58
2022/07/23 04:49:56;;;;;;;12.87;11.77;;;22.20;73.60;;;;;;4979019;28;20185;-59
2022/07/23 04:52:21;;;;;;;13.53;12.13;;;22.30;73.70;;;;;;5002963;28;20192;-58
2022/07/23 04:54:47;;;;;;;12.93;11.80;;;22.20;73.90;;;;;;4976553;28;20192;-59
2022/07/23 04:57:13;;;;;;;12.63;11.63;;;22.20;73.90;;;;;;4978865;28;20192;-59
2022/07/23 04:59:39;;;;;;;13.43;11.93;;;22.20;73.90;;;;;;4984077;28;20197;-59
2022/07/23 05:02:04;;;;;;;14.23;12.83;;;22.30;74.20;;;;;;4990743;28;20279;-59
2022/07/23 05:04:31;;;;;;;13.73;12.43;;;22.40;74.10;;;;;;4977835;28;20192;-59
2022/07/23 05:06:57;;;;;;;14.73;13.20;;;22.40;73.90;;;;;;4990746;28;20184;-59
2022/07/23 05:09:23;;;;;;;14.50;13.10;;;22.40;73.70;;;;;;4974701;28;20200;-59
2022/07/23 05:11:48;;;;;;;14.50;13.10;;;22.40;73.20;;;;;;4971817;28;20291;-59
2022/07/23 05:14:14;;;;;;;15.20;13.70;;;22.40;73.20;;;;;;4958565;28;20185;-59
2022/07/23 05:16:40;;;;;;;14.10;12.70;;;22.50;73.10;;;;;;4954278;28;20188;-59
2022/07/23 05:19:06;;;;;;;16.00;13.37;;;22.50;72.90;;;;;;4957901;28;20224;-59
2022/07/23 05:21:32;;;;;;;13.70;12.50;;;22.60;73.10;;;;;;4960366;28;20241;-59
2022/07/23 05:23:58;;;;;;;13.67;12.57;;;22.60;73.10;;;;;;4966140;28;20201;-59
2022/07/23 05:26:24;;;;;;;15.73;13.27;;;22.60;72.90;;;;;;4953186;28;20189;-58
2022/07/23 05:28:50;;;;;;;14.57;13.37;;;22.60;72.80;;;;;;4959523;28;20221;-58
2022/07/23 05:31:16;;;;;;;15.73;13.83;;;22.70;73.20;;;;;;4992106;28;20210;-58
2022/07/23 05:33:42;;;;;;;14.90;13.30;;;22.70;72.80;;;;;;4975646;28;20197;-58
2022/07/23 05:36:08;;;;;;;14.20;12.90;;;22.70;72.70;;;;;;4971983;28;20293;-58
2022/07/23 05:38:34;;;;;;;15.10;13.60;;;22.70;72.80;;;;;;4927023;28;20200;-58
2022/07/23 05:41:00;;;;;;;14.00;12.80;;;22.70;73.00;;;;;;4959218;28;20200;-59
2022/07/23 05:43:26;;;;;;;14.83;13.37;;;22.70;73.00;;;;;;4967202;28;20216;-59
2022/07/23 05:45:52;;;;;;;14.43;13.07;;;22.70;73.10;;;;;;4953376;29;20192;-59
2022/07/23 05:48:17;;;;;;;13.43;12.23;;;22.70;73.10;;;;;;4977941;28;20208;-59
2022/07/23 05:50:43;;;;;;;15.07;13.70;;;22.70;73.20;;;;;;4925856;28;20205;-59
2022/07/23 05:53:08;;;;;;;14.93;13.53;;;22.80;73.20;;;;;;4971253;28;20290;-59
2022/07/23 05:55:34;;;;;;;13.90;12.60;;;22.80;73.30;;;;;;4959224;28;20267;-59
2022/07/23 05:58:00;;;;;;;14.63;13.30;;;22.90;73.40;;;;;;4962204;28;20197;-59
2022/07/23 06:00:27;;;;;;;13.33;12.13;;;22.90;73.20;;;;;;4947208;29;20216;-59
2022/07/23 06:02:52;;;;;;;14.13;12.93;;;22.90;73.20;;;;;;4930644;28;20220;-59
2022/07/23 06:05:19;;;;;;;14.00;12.57;;;22.90;73.20;;;;;;4942891;28;20279;-59
2022/07/23 06:07:44;;;;;;;14.07;12.67;;;22.90;73.20;;;;;;4970521;28;20212;-59
2022/07/23 06:10:10;;;;;;;15.13;13.63;;;22.90;73.10;;;;;;4955460;28;20200;-59
2022/07/23 06:12:37;;;;;;;14.80;13.43;;;22.90;73.30;;;;;;4984650;28;20331;-59
2022/07/23 06:15:03;;;;;;;14.10;12.80;;;22.90;73.10;;;;;;4991425;28;20199;-59
2022/07/23 06:17:29;;;;;;;13.67;12.50;;;23.00;73.10;;;;;;4985144;28;20282;-60
2022/07/23 06:19:55;;;;;;;13.83;12.53;;;23.00;73.10;;;;;;4998658;28;20197;-60
2022/07/23 06:22:21;;;;;;;13.50;12.10;;;23.00;73.10;;;;;;5002223;28;20213;-60
2022/07/23 06:24:48;;;;;;;12.90;11.80;;;23.00;72.90;;;;;;5003169;28;20224;-60
2022/07/23 06:27:14;;;;;;;14.17;12.70;;;23.10;72.50;;;;;;4992749;28;20212;-60
2022/07/23 06:29:40;;;;;;;13.17;11.97;;;23.20;70.60;;;;;;4992779;28;20195;-60
2022/07/23 06:32:07;;;;;;;14.13;12.77;;;23.20;70.50;;;;;;4988101;28;20208;-60
2022/07/23 06:34:33;;;;;;;14.33;13.03;;;23.20;70.70;;;;;;4992492;28;20192;-59
2022/07/23 06:37:00;;;;;;;14.10;12.77;;;23.30;71.00;;;;;;4990146;28;20181;-59
2022/07/23 06:39:26;;;;;;;13.53;12.23;;;23.30;70.90;;;;;;4990561;28;20267;-59
2022/07/23 06:41:52;;;;;;;12.50;11.30;;;23.30;70.90;;;;;;4984359;28;20251;-59
2022/07/23 06:44:18;;;;;;;12.80;11.50;;;23.40;71.00;;;;;;4993348;28;20195;-59
2022/07/23 06:46:43;;;;;;;12.67;11.57;;;23.30;71.10;;;;;;4991729;28;20200;-59
2022/07/23 06:49:09;;;;;;;13.90;12.47;;;23.40;71.30;;;;;;4994770;28;20304;-59
2022/07/23 06:51:35;;;;;;;13.47;12.27;;;23.50;71.10;;;;;;5005173;28;20188;-59
2022/07/23 06:54:01;;;;;;;14.20;12.83;;;23.50;71.00;;;;;;5002631;28;20208;-59
2022/07/23 06:56:26;;;;;;;12.83;11.77;;;23.60;71.00;;;;;;4983212;28;20196;-59
2022/07/23 06:58:52;;;;;;;12.00;10.90;;;23.70;71.40;;;;;;4960991;28;20203;-59
2022/07/23 07:01:18;;;;;;;12.43;11.27;;;23.70;71.60;;;;;;4994048;28;20357;-59
2022/07/23 07:03:43;;;;;;;13.80;12.27;;;23.80;72.00;;;;;;4977448;28;20200;-60
2022/07/23 07:06:09;;;;;;;13.17;11.93;;;23.80;71.90;;;;;;4977276;28;20228;-60
2022/07/23 07:08:35;;;;;;;13.10;11.77;;;23.90;71.70;;;;;;4977292;28;20254;-61
2022/07/23 07:11:00;;;;;;;13.67;12.50;;;24.10;71.90;;;;;;4990138;28;20191;-60
2022/07/23 07:13:26;;;;;;;13.40;12.20;;;24.10;72.30;;;;;;4960251;28;20239;-60
2022/07/23 07:15:52;;;;;;;12.70;11.60;;;24.20;72.10;;;;;;4970541;28;20249;-60
2022/07/23 07:18:17;;;;;;;12.13;11.03;;;24.20;71.70;;;;;;4979111;28;20275;-60
2022/07/23 07:20:43;;;;;;;12.73;11.67;;;24.30;71.60;;;;;;4998300;28;20197;-58
2022/07/23 07:23:09;;;;;;;12.37;11.13;;;24.40;71.10;;;;;;5002478;28;20197;-61
2022/07/23 07:25:35;;;;;;;12.23;11.03;;;24.50;69.30;;;;;;4993606;28;20267;-61
2022/07/23 07:28:00;;;;;;;11.23;10.13;;;24.70;66.60;;;;;;4981381;28;20226;-62
2022/07/23 07:30:26;;;;;;;10.90;9.90;;;25.00;63.80;;;;;;4980754;28;20228;-62
2022/07/23 07:32:52;;;;;;;11.33;10.10;;;25.20;63.00;;;;;;4990636;28;20200;-61
2022/07/23 07:35:18;;;;;;;10.47;9.47;;;25.20;63.10;;;;;;5008129;28;20220;-61
2022/07/23 07:37:43;;;;;;;11.17;9.83;;;25.20;62.30;;;;;;4997130;28;20228;-61
2022/07/23 07:40:09;;;;;;;10.83;9.20;;;25.50;60.20;;;;;;4992585;28;20213;-61
2022/07/23 07:42:43;;;;;;;9.27;8.47;;;25.60;59.80;;;;;;4980717;28;20196;-61
2022/07/23 07:45:09;;;;;;;12.57;8.83;;;25.60;59.40;;;;;;4968712;28;20188;-61
2022/07/23 07:47:35;;;;;;;8.87;8.00;;;25.60;60.40;;;;;;4993194;28;20223;-61
2022/07/23 07:50:01;;;;;;;8.93;8.03;;;25.60;59.30;;;;;;4961744;28;20208;-61
2022/07/23 07:52:26;;;;;;;8.53;7.83;;;25.70;59.10;;;;;;4978700;28;20720;-60
2022/07/23 07:54:52;;;;;;;7.97;7.33;;;25.80;58.90;;;;;;4987038;28;20189;-60
2022/07/23 07:57:18;;;;;;;7.50;5.97;;;25.90;58.90;;;;;;4993764;28;20231;-60
2022/07/23 07:59:43;;;;;;;5.90;5.50;;;26.00;53.10;;;;;;4992690;28;20216;-60
2022/07/23 08:02:09;;;;;;;6.55;5.85;;;26.20;52.60;;;;;;4962022;28;20432;-60
2022/07/23 08:04:34;;;;;;;6.53;6.03;;;26.20;52.30;;;;;;4991652;28;20203;-60
2022/07/23 08:07:00;;;;;;;6.30;5.80;;;26.30;53.00;;;;;;4995590;28;20200;-60
2022/07/23 08:09:26;;;;;;;6.20;5.70;;;26.30;53.40;;;;;;4990259;28;20189;-60
2022/07/23 08:11:51;;;;;;;6.63;6.03;;;26.40;54.20;;;;;;4989266;28;20238;-60
2022/07/23 08:14:18;;;;;;;6.47;5.90;;;26.50;51.50;;;;;;4953831;28;20221;-60
2022/07/23 08:16:43;;;;;;;7.03;6.40;;;26.50;54.10;;;;;;4955921;28;20209;-60
2022/07/23 08:19:09;;;;;;;6.40;5.80;;;26.50;55.60;;;;;;4953815;28;20189;-60
2022/07/23 08:21:35;;;;;;;6.10;5.50;;;26.50;52.30;;;;;;4952761;28;20194;-60
2022/07/23 08:24:01;;;;;;;6.63;6.13;;;26.60;51.40;;;;;;4960752;28;20251;-60
2022/07/23 08:26:26;;;;;;;6.33;5.73;;;26.70;51.10;;;;;;4959475;28;20221;-60
2022/07/23 08:28:52;;;;;;;6.27;5.77;;;26.70;50.90;;;;;;4968552;28;20417;-61
2022/07/23 08:31:18;;;;;;;5.87;5.47;;;26.70;50.20;;;;;;4945050;28;20197;-60
2022/07/23 08:33:44;;;;;;;6.47;5.67;;;26.80;50.60;;;;;;4940058;28;20200;-60
2022/07/23 08:36:09;;;;;;;5.87;5.37;;;27.00;46.90;;;;;;4957851;28;20193;-60
2022/07/23 08:38:35;;;;;;;6.17;5.13;;;27.10;47.40;;;;;;4965714;28;20198;-60
2022/07/23 08:41:02;;;;;;;5.73;5.23;;;27.20;47.00;;;;;;4955071;28;20203;-60
2022/07/23 08:43:31;;;;;;;5.20;4.80;;;27.30;47.40;;;;;;4944253;28;20201;-60
2022/07/23 08:45:59;;;;;;;5.70;5.20;;;27.80;46.80;;;;;;4958673;28;20272;-61
2022/07/23 08:48:27;;;;;;;6.17;5.67;;;27.80;46.10;;;;;;4943814;28;20212;-61
2022/07/23 08:50:58;;;;;;;5.90;5.40;;;27.90;45.90;;;;;;4958604;28;20197;-61
2022/07/23 08:53:26;;;;;;;6.37;5.73;;;27.90;45.90;;;;;;4980003;28;20193;-61
2022/07/23 08:55:54;;;;;;;6.37;5.77;;;27.90;45.80;;;;;;4982997;28;20197;-60
2022/07/23 08:58:21;;;;;;;7.43;5.67;;;27.90;47.40;;;;;;4971185;28;20188;-60
2022/07/23 09:00:49;;;;;;;5.90;5.33;;;28.10;46.30;;;;;;4958569;28;20200;-60
2022/07/23 09:03:35;;;;;;;6.17;5.67;;;28.10;46.20;;;;;;4948453;28;20267;-60
2022/07/23 09:06:01;;;;;;;6.47;5.97;;;28.20;45.70;;;;;;4964802;28;20240;-60
2022/07/23 09:08:40;;;;;;;6.87;6.17;;;28.10;48.40;;;;;;4963710;28;20216;-60
2022/07/23 09:11:11;;;;;;;5.80;5.40;;;28.10;51.00;;;;;;4945113;28;20193;-61
2022/07/23 09:13:41;;;;;;;6.83;5.67;;;28.10;54.20;;;;;;4989218;28;20232;-60
2022/07/23 09:16:21;;;;;;;6.77;6.17;;;28.10;56.00;;;;;;4994903;28;20191;-60
2022/07/23 09:18:50;;;;;;;6.20;5.67;;;28.00;55.10;;;;;;4990262;28;20195;-60
2022/07/23 09:21:28;;;;;;;6.80;6.23;;;28.00;54.90;;;;;;5000934;28;20227;-60
2022/07/23 09:24:00;;;;;;;6.50;5.90;;;28.00;56.90;;;;;;4989019;28;20218;-60
2022/07/23 09:26:37;;;;;;;6.63;6.03;;;28.00;57.10;;;;;;4991321;28;20188;-60
2022/07/23 09:29:10;;;;;;;5.97;5.53;;;27.90;57.90;;;;;;4994455;28;20211;-60
2022/07/23 09:31:49;;;;;;;6.90;6.30;;;27.90;55.90;;;;;;5010384;28;20180;-60
2022/07/23 09:34:17;;;;;;;6.77;6.13;;;27.80;57.10;;;;;;4995376;28;20180;-60
2022/07/23 09:36:43;;;;;;;6.30;5.80;;;27.80;52.50;;;;;;4994074;28;20223;-60
2022/07/23 09:39:10;;;;;;;5.90;5.40;;;27.80;53.60;;;;;;4992049;28;20224;-60
2022/07/23 09:41:44;;;;;;;6.13;5.53;;;27.80;52.50;;;;;;4992128;28;20193;-60
2022/07/23 09:44:13;;;;;;;6.20;5.70;;;27.80;50.90;;;;;;5006292;28;20193;-60
2022/07/23 09:46:40;;;;;;;6.30;5.37;;;27.70;52.40;;;;;;5001217;28;20279;-60
2022/07/23 09:49:32;;;;;;;6.13;5.53;;;27.80;48.50;;;;;;4974963;28;20228;-59
2022/07/23 09:52:00;;;;;;;7.00;6.40;;;27.80;49.00;;;;;;4969927;28;20293;-59
2022/07/23 09:54:34;;;;;;;5.20;4.80;;;27.80;48.10;;;;;;4993202;28;20187;-59
2022/07/23 09:57:20;;;;;;;5.50;4.90;;;27.90;49.50;;;;;;4988465;28;20183;-59
2022/07/23 09:59:47;;;;;;;5.53;5.13;;;28.10;47.10;;;;;;4990794;28;20284;-59
2022/07/23 10:02:14;;;;;;;5.87;5.27;;;28.20;47.50;;;;;;4976123;28;20196;-59
2022/07/23 10:04:41;;;;;;;5.93;4.90;;;28.20;45.70;;;;;;5004675;28;20211;-60
2022/07/23 10:07:10;;;;;;;4.80;4.43;;;28.30;46.80;;;;;;4989993;28;20189;-60
2022/07/23 10:09:37;;;;;;;6.17;4.87;;;28.40;48.00;;;;;;5002659;28;20192;-60
2022/07/23 10:14:43;;;;;;;4.83;4.43;;;28.30;46.60;;;;;;4986037;28;20271;-60
2022/07/23 10:17:09;;;;;;;5.20;4.80;;;28.40;45.70;;;;;;4995242;28;20259;-60
2022/07/23 10:19:35;;;;;;;5.57;5.07;;;28.40;47.10;;;;;;5002377;28;20193;-60
2022/07/23 10:22:09;;;;;;;5.00;4.60;;;28.50;45.50;;;;;;5004664;28;20189;-60
2022/07/23 10:24:41;;;;;;;5.40;4.70;;;28.60;45.50;;;;;;4984708;28;20226;-59
2022/07/23 10:27:43;;;;;;;5.60;5.00;;;28.60;47.00;;;;;;5003902;28;20207;-59
2022/07/23 10:30:41;;;;;;;5.97;5.47;;;28.90;44.90;;;;;;4993133;28;20203;-60
2022/07/23 10:33:32;;;;;;;5.67;5.23;;;29.00;45.70;;;;;;4993702;28;20234;-60
2022/07/23 10:36:09;;;;;;;5.50;5.10;;;29.20;46.60;;;;;;5003233;28;20184;-60
2022/07/23 10:38:42;;;;;;;6.33;5.83;;;29.20;46.00;;;;;;5016677;28;20191;-60
2022/07/23 10:41:08;;;;;;;6.57;5.97;;;29.20;45.90;;;;;;4993892;28;20192;-60
2022/07/23 10:43:34;;;;;;;6.30;5.90;;;29.20;46.70;;;;;;4985286;28;20191;-60
2022/07/23 10:46:24;;;;;;;5.67;5.17;;;29.30;46.70;;;;;;4977950;28;20200;-60
2022/07/23 10:49:29;;;;;;;6.27;5.70;;;29.40;46.30;;;;;;5005887;28;20216;-60
2022/07/23 10:52:13;;;;;;;6.27;5.77;;;29.50;45.50;;;;;;5015258;28;20676;-60
2022/07/23 10:55:02;;;;;;;6.50;5.97;;;29.60;46.10;;;;;;4999676;28;20210;-60
2022/07/23 10:57:28;;;;;;;6.80;6.20;;;29.70;48.00;;;;;;4961782;28;20215;-60
2022/07/23 11:00:11;;;;;;;6.87;6.37;;;29.70;46.80;;;;;;4990732;28;20197;-60
2022/07/23 11:02:38;;;;;;;7.97;7.37;;;29.80;45.10;;;;;;4988822;28;20194;-60
2022/07/23 11:05:17;;;;;;;6.90;6.27;;;29.80;45.50;;;;;;4985288;28;20200;-60
2022/07/23 11:08:11;;;;;;;7.63;6.93;;;29.90;47.70;;;;;;4985539;28;20196;-60
2022/07/23 11:10:41;;;;;;;7.83;7.03;;;30.00;45.60;;;;;;5005584;28;20227;-60
2022/07/23 11:13:22;;;;;;;7.80;7.17;;;29.90;45.60;;;;;;5007170;28;20231;-60
2022/07/23 11:16:13;;;;;;;7.77;6.97;;;29.90;45.50;;;;;;4994682;28;20191;-60
2022/07/23 11:18:46;;;;;;;8.17;7.37;;;30.00;46.90;;;;;;4996095;28;20195;-60
2022/07/23 11:21:21;;;;;;;7.53;6.83;;;30.10;47.70;;;;;;5008749;28;20187;-60
2022/07/23 11:24:08;;;;;;;8.00;7.20;;;30.30;45.60;;;;;;4994501;28;20199;-60
2022/07/23 11:26:47;;;;;;;7.90;7.20;;;30.40;43.20;;;;;;5000365;28;20184;-60
2022/07/23 11:29:28;;;;;;;7.47;6.73;;;30.50;44.10;;;;;;5005257;28;20216;-60
2022/07/23 11:31:57;;;;;;;7.50;6.80;;;30.60;43.90;;;;;;4983904;28;20199;-60
2022/07/23 11:34:32;;;;;;;7.73;7.00;;;30.70;43.60;;;;;;4987956;28;20243;-60
2022/07/23 11:36:59;;;;;;;8.97;8.27;;;30.70;46.10;;;;;;4999144;28;20187;-60
2022/07/23 11:39:26;;;;;;;8.27;7.57;;;30.90;44.20;;;;;;4991866;28;20196;-60
2022/07/23 11:41:52;;;;;;;7.03;6.43;;;31.10;45.40;;;;;;5006192;28;20259;-60
2022/07/23 11:44:31;;;;;;;6.53;6.03;;;31.20;44.50;;;;;;4977044;28;20223;-60
2022/07/23 11:47:09;;;;;;;7.00;6.30;;;31.30;42.40;;;;;;4989127;28;20189;-59
2022/07/23 11:49:35;;;;;;;7.07;5.80;;;31.30;41.80;;;;;;4999925;28;20219;-58
2022/07/23 11:52:07;;;;;;;6.50;5.90;;;31.40;41.50;;;;;;4992015;28;20192;-58
2022/07/23 11:54:34;;;;;;;6.43;5.83;;;31.40;42.10;;;;;;4981411;28;20247;-60
2022/07/23 11:57:02;;;;;;;6.50;6.00;;;31.50;40.00;;;;;;4983982;28;20219;-58
2022/07/23 11:59:32;;;;;;;6.27;5.77;;;31.50;40.90;;;;;;4995838;28;20192;-57
2022/07/23 12:01:58;;;;;;;6.57;5.97;;;31.70;42.50;;;;;;4989857;28;20193;-60
2022/07/23 12:04:36;;;;;;;7.83;6.20;;;31.90;39.50;;;;;;4993283;28;20185;-58
2022/07/23 12:07:02;;;;;;;6.53;6.03;;;32.10;37.40;;;;;;5003242;28;20196;-58
2022/07/23 12:09:28;;;;;;;5.93;5.53;;;32.30;38.00;;;;;;4995207;28;20223;-58
2022/07/23 12:12:00;;;;;;;6.13;5.53;;;32.50;41.10;;;;;;4988023;28;20233;-58
2022/07/23 12:14:26;;;;;;;6.77;6.17;;;32.60;39.20;;;;;;4943612;28;20245;-58
2022/07/23 12:17:12;;;;;;;6.73;5.90;;;32.50;38.20;;;;;;4966273;28;20190;-58
2022/07/23 12:19:39;;;;;;;6.37;5.80;;;32.50;38.90;;;;;;4942141;28;20276;-58
2022/07/23 12:22:05;;;;;;;6.53;5.93;;;33.00;37.10;;;;;;4945315;28;20225;-59
2022/07/23 12:24:30;;;;;;;6.43;5.93;;;33.40;35.50;;;;;;4929354;28;20201;-59
2022/07/23 12:27:13;;;;;;;6.70;6.00;;;33.90;36.70;;;;;;4960343;28;20196;-58
2022/07/23 12:29:39;;;;;;;6.37;5.83;;;34.20;36.60;;;;;;4949120;28;20197;-59
2022/07/23 12:32:28;;;;;;;6.07;5.57;;;34.80;35.10;;;;;;4993457;28;20188;-59
2022/07/23 12:35:04;;;;;;;5.60;5.17;;;35.50;31.50;;;;;;4966390;28;20193;-60
2022/07/23 12:37:33;;;;;;;7.03;5.83;;;36.00;31.60;;;;;;4960806;28;20207;-60
2022/07/23 12:40:23;;;;;;;6.37;5.90;;;36.30;30.50;;;;;;4960768;28;20220;-60
2022/07/23 12:42:50;;;;;;;6.77;6.27;;;36.20;30.30;;;;;;4987893;28;20224;-60
2022/07/23 12:45:16;;;;;;;6.63;6.13;;;36.90;29.50;;;;;;4956643;28;20194;-60
2022/07/23 12:48:06;;;;;;;6.37;5.87;;;37.20;29.50;;;;;;4975862;28;20220;-60